Time;durP1;ratioP1;P1;durP2;ratioP2;P2;SDS_P1;SDS_P2;PMS_P1;PMS_P2;Temp;Humidity;BMP_temperature;BMP_pressure;BME280_temperature;BME280_humidity;BME280_pressure;Samples;Min_cycle;Max_cycle;Signal;HPM_P1;HPM_P2
2021/04/21 00:01:06;;;;;;;17.97;12.00;;;;;;;10.11;55.45;96532.72;5032582;28;20414;-71
2021/04/21 00:03:32;;;;;;;17.77;12.87;;;;;;;10.03;55.44;96526.66;5033691;28;20429;-71
2021/04/21 00:05:59;;;;;;;18.87;12.87;;;;;;;10.01;55.88;96523.41;5042352;28;20625;-72
2021/04/21 00:08:25;;;;;;;19.23;12.50;;;;;;;9.99;55.84;96529.63;5032710;28;20937;-71
2021/04/21 00:10:52;;;;;;;17.73;12.70;;;;;;;10.00;55.63;96519.97;5034078;28;20438;-71
2021/04/21 00:13:18;;;;;;;18.87;12.20;;;;;;;9.94;56.00;96520.63;5034265;28;20427;-71
2021/04/21 00:15:44;;;;;;;15.33;11.93;;;;;;;9.92;56.03;96519.97;5033082;28;20949;-71
2021/04/21 00:18:10;;;;;;;17.20;12.67;;;;;;;9.94;55.80;96513.59;5033968;28;20411;-71
2021/04/21 00:20:36;;;;;;;20.70;14.37;;;;;;;9.76;56.34;96520.78;5032414;28;20242;-71
2021/04/21 00:23:04;;;;;;;16.03;12.77;;;;;;;9.68;57.35;96519.00;5038911;28;20435;-71
2021/04/21 00:25:32;;;;;;;17.73;12.90;;;;;;;9.76;56.48;96526.03;5033375;28;20493;-71
2021/04/21 00:27:58;;;;;;;21.83;12.73;;;;;;;9.74;56.64;96513.13;5033920;28;20476;-71
2021/04/21 00:30:29;;;;;;;16.97;12.97;;;;;;;9.80;56.09;96506.41;5034245;28;20423;-73
2021/04/21 00:32:55;;;;;;;17.47;13.00;;;;;;;9.77;56.44;96512.78;5033684;28;20477;-71
2021/04/21 00:35:37;;;;;;;18.40;13.60;;;;;;;9.66;56.93;96506.09;5032005;28;20968;-72
2021/04/21 00:38:07;;;;;;;16.93;12.90;;;;;;;9.74;56.72;96501.81;5033742;28;20489;-71
2021/04/21 00:40:50;;;;;;;19.30;12.50;;;;;;;9.78;56.42;96508.38;5031335;28;20910;-71
2021/04/21 00:43:36;;;;;;;20.67;13.50;;;;;;;9.75;56.40;96504.28;5027739;28;20407;-71
2021/04/21 00:46:05;;;;;;;19.73;14.10;;;;;;;9.74;56.26;96507.06;5031990;28;21139;-72
2021/04/21 00:48:45;;;;;;;18.83;14.10;;;;;;;9.66;56.66;96494.78;5033119;28;20508;-72
2021/04/21 00:51:13;;;;;;;19.13;13.13;;;;;;;9.63;56.82;96501.16;5031640;28;20426;-72
2021/04/21 00:53:42;;;;;;;20.00;13.80;;;;;;;9.64;56.41;96499.38;5032958;28;20441;-72
2021/04/21 00:56:29;;;;;;;21.67;14.93;;;;;;;9.64;56.34;96496.78;5031732;28;20525;-71
2021/04/21 00:59:12;;;;;;;28.00;15.20;;;;;;;9.58;57.23;96500.81;5030932;28;20414;-72
2021/04/21 01:01:40;;;;;;;18.40;13.40;;;;;;;9.64;57.13;96488.94;5031286;28;20418;-72
2021/04/21 01:04:06;;;;;;;21.00;14.57;;;;;;;9.65;57.00;96482.69;5031754;28;20438;-72
2021/04/21 01:06:37;;;;;;;23.27;15.60;;;;;;;9.66;56.61;96487.78;5037656;28;20557;-72
2021/04/21 01:09:05;;;;;;;22.47;15.40;;;;;;;9.59;56.97;96488.59;5032403;28;20410;-72
2021/04/21 01:11:34;;;;;;;24.00;15.60;;;;;;;9.61;56.76;96482.19;5030917;28;20421;-72
2021/04/21 01:14:07;;;;;;;24.27;15.17;;;;;;;9.62;56.65;96478.59;5007086;28;20501;-72
2021/04/21 01:16:33;;;;;;;24.70;15.63;;;;;;;9.62;57.04;96476.00;5031457;28;20439;-72
2021/04/21 01:19:04;;;;;;;20.77;15.70;;;;;;;9.64;56.74;96478.47;5029667;28;20423;-72
2021/04/21 01:21:42;;;;;;;23.77;15.77;;;;;;;9.64;56.39;96474.03;5031320;28;20441;-71
2021/04/21 01:24:19;;;;;;;21.43;15.00;;;;;;;9.63;56.78;96469.78;5031053;28;20829;-72
2021/04/21 01:27:06;;;;;;;22.20;15.43;;;;;;;9.59;56.77;96468.47;5032826;28;20414;-72
2021/04/21 01:29:36;;;;;;;20.70;15.87;;;;;;;9.53;56.62;96480.41;5031085;28;20414;-72
2021/04/21 01:32:06;;;;;;;22.60;15.57;;;;;;;9.51;56.95;96476.31;5030506;28;20414;-72
2021/04/21 01:34:33;;;;;;;22.40;15.80;;;;;;;9.51;56.50;96469.28;5030851;28;20423;-73
2021/04/21 01:36:59;;;;;;;25.00;17.00;;;;;;;9.48;56.98;96472.25;5029896;28;20830;-72
2021/04/21 01:39:26;;;;;;;25.47;15.57;;;;;;;9.49;56.81;96471.25;5029329;28;20427;-71
2021/04/21 01:41:53;;;;;;;24.67;15.30;;;;;;;9.51;56.84;96476.31;5030546;28;20828;-72
2021/04/21 01:44:26;;;;;;;24.43;17.10;;;;;;;9.47;56.65;96480.22;5031557;28;20455;-71
2021/04/21 01:46:56;;;;;;;22.87;16.10;;;;;;;9.47;56.86;96480.22;5031113;28;20458;-73
2021/04/21 01:49:22;;;;;;;24.60;18.03;;;;;;;9.43;57.35;96478.94;5032485;28;20937;-70
2021/04/21 01:51:58;;;;;;;25.17;17.70;;;;;;;9.41;57.17;96475.66;5030585;28;20512;-72
2021/04/21 01:54:26;;;;;;;25.13;17.53;;;;;;;9.43;56.96;96474.50;5030450;28;20226;-72
2021/04/21 01:56:54;;;;;;;26.10;17.53;;;;;;;9.34;56.89;96476.28;5030023;28;20816;-73
2021/04/21 01:59:35;;;;;;;25.77;17.70;;;;;;;9.16;57.83;96470.41;5030953;28;20431;-72
2021/04/21 02:02:32;;;;;;;28.50;17.00;;;;;;;9.03;58.17;96469.09;5022360;28;20419;-72
2021/04/21 02:04:58;;;;;;;23.90;15.93;;;;;;;9.14;57.99;96470.56;5031277;28;20525;-72
2021/04/21 02:07:41;;;;;;;32.37;18.40;;;;;;;9.18;57.66;96478.91;5031913;28;21036;-71
2021/04/21 02:10:07;;;;;;;27.33;18.70;;;;;;;9.18;57.88;96471.06;5030799;28;20184;-71
2021/04/21 02:12:38;;;;;;;29.50;19.13;;;;;;;9.16;57.89;96481.66;5031523;28;20446;-72
2021/04/21 02:15:13;;;;;;;32.03;20.13;;;;;;;9.15;57.61;96481.84;5021983;28;20216;-71
2021/04/21 02:17:56;;;;;;;28.77;18.50;;;;;;;9.14;58.03;96478.41;5029903;28;20429;-72
2021/04/21 02:20:25;;;;;;;30.53;19.50;;;;;;;9.14;58.20;96480.22;5031154;28;20426;-72
2021/04/21 02:23:15;;;;;;;27.47;18.23;;;;;;;8.96;58.91;96481.13;5030597;28;20438;-73
2021/04/21 02:25:59;;;;;;;34.07;21.60;;;;;;;8.97;58.80;96477.56;5030116;28;20466;-73
2021/04/21 02:28:32;;;;;;;31.53;20.67;;;;;;;8.91;58.73;96478.19;5031785;28;20422;-72
2021/04/21 02:31:08;;;;;;;34.10;20.50;;;;;;;8.86;59.15;96475.25;5036632;28;20519;-72
2021/04/21 02:33:41;;;;;;;31.50;20.27;;;;;;;9.02;59.01;96474.44;5027866;28;20486;-71
2021/04/21 02:36:10;;;;;;;30.00;19.20;;;;;;;9.00;58.70;96479.84;5030012;28;20434;-71
2021/04/21 02:38:54;;;;;;;30.87;20.00;;;;;;;9.04;58.62;96473.34;5030796;28;20446;-71
2021/04/21 02:41:58;;;;;;;33.77;20.47;;;;;;;9.00;58.50;96477.25;5030967;28;20422;-73
2021/04/21 02:44:39;;;;;;;37.17;20.87;;;;;;;8.65;59.33;96475.66;4956976;28;20973;-72
2021/04/21 02:47:31;;;;;;;30.97;21.17;;;;;;;8.53;59.97;96483.78;5023807;28;20522;-72
2021/04/21 02:50:06;;;;;;;34.03;20.73;;;;;;;8.57;60.35;96479.06;5028052;28;20512;-71
2021/04/21 02:52:44;;;;;;;36.00;21.17;;;;;;;8.69;60.49;96469.97;5031039;28;20891;-71
2021/04/21 02:55:28;;;;;;;30.13;20.83;;;;;;;8.90;59.50;96473.94;5030368;28;20496;-71
2021/04/21 02:58:15;;;;;;;32.33;22.00;;;;;;;8.96;58.94;96473.28;5031025;28;20437;-71
2021/04/21 03:00:53;;;;;;;29.93;19.90;;;;;;;8.98;58.74;96463.50;5029196;28;20423;-71
2021/04/21 03:03:28;;;;;;;31.43;21.03;;;;;;;8.92;59.14;96466.78;5030814;28;20422;-71
2021/04/21 03:06:11;;;;;;;31.23;21.50;;;;;;;8.95;58.58;96469.03;5029318;28;20469;-72
2021/04/21 03:08:44;;;;;;;33.00;21.80;;;;;;;8.97;58.20;96469.72;5029593;28;20544;-71
2021/04/21 03:11:15;;;;;;;32.93;21.60;;;;;;;8.94;58.30;96464.81;5030120;28;20948;-71
2021/04/21 03:13:53;;;;;;;27.80;19.77;;;;;;;8.91;58.46;96465.13;5029027;28;20476;-72
2021/04/21 03:16:20;;;;;;;30.50;20.93;;;;;;;8.94;58.59;96464.81;5031675;28;20560;-71
2021/04/21 03:18:46;;;;;;;27.93;20.20;;;;;;;8.99;59.14;96462.53;5029548;28;20431;-72
2021/04/21 03:21:25;;;;;;;30.97;19.77;;;;;;;8.98;58.45;96468.72;5030389;28;20423;-73
2021/04/21 03:23:56;;;;;;;33.20;21.30;;;;;;;8.95;58.55;96469.03;5029219;28;20795;-71
2021/04/21 03:26:22;;;;;;;29.13;20.10;;;;;;;8.91;58.52;96465.13;5011834;28;21062;-73
2021/04/21 03:28:51;;;;;;;28.97;18.40;;;;;;;8.83;57.83;96468.53;5030802;28;20786;-72
2021/04/21 03:31:18;;;;;;;31.23;20.77;;;;;;;8.74;58.36;96462.47;5028281;28;20476;-72
2021/04/21 03:33:53;;;;;;;28.30;18.83;;;;;;;8.64;59.23;96471.41;5029696;28;20423;-72
2021/04/21 03:36:19;;;;;;;32.83;19.87;;;;;;;8.57;60.00;96463.38;5033060;28;20436;-72
2021/04/21 03:38:46;;;;;;;35.70;24.60;;;;;;;8.62;59.83;96449.88;5034084;28;20974;-72
2021/04/21 03:41:12;;;;;;;35.27;21.33;;;;;;;8.68;59.82;96452.66;5034283;28;20448;-72
2021/04/21 03:43:38;;;;;;;35.97;19.90;;;;;;;8.69;59.29;96458.69;5033155;28;20517;-72
2021/04/21 03:46:04;;;;;;;29.37;20.00;;;;;;;8.64;59.15;96459.19;5031517;28;20454;-72
2021/04/21 03:48:32;;;;;;;27.27;18.23;;;;;;;8.63;59.09;96457.53;5032663;28;20485;-72
2021/04/21 03:50:58;;;;;;;28.60;20.10;;;;;;;8.62;58.53;96461.13;5031622;28;20419;-73
2021/04/21 03:53:31;;;;;;;28.90;19.33;;;;;;;8.58;59.00;96450.19;5032700;28;20502;-72
2021/04/21 03:55:58;;;;;;;40.40;21.00;;;;;;;8.54;58.73;96453.28;5016853;28;20454;-72
2021/04/21 03:58:25;;;;;;;25.10;17.87;;;;;;;8.55;58.92;96449.69;5034008;28;20426;-72
2021/04/21 04:01:15;;;;;;;35.00;20.30;;;;;;;8.51;59.33;96448.34;5031457;28;20791;-72
2021/04/21 04:03:47;;;;;;;35.43;20.03;;;;;;;8.49;59.07;96447.69;5031537;28;20459;-71
2021/04/21 04:06:20;;;;;;;25.80;18.30;;;;;;;8.48;59.27;96448.66;5029062;28;20434;-72
2021/04/21 04:09:00;;;;;;;28.37;20.40;;;;;;;8.46;59.93;96454.81;5032443;28;20422;-73
2021/04/21 04:11:34;;;;;;;32.40;19.83;;;;;;;8.44;60.07;96451.56;5034992;28;21001;-71
2021/04/21 04:14:07;;;;;;;32.60;20.77;;;;;;;8.45;60.15;96449.78;5033437;28;20426;-71
2021/04/21 04:16:33;;;;;;;27.40;19.53;;;;;;;8.50;59.63;96454.56;5036111;28;20438;-73
2021/04/21 04:19:01;;;;;;;28.03;19.80;;;;;;;8.46;59.77;96451.41;5033570;28;20885;-72
2021/04/21 04:21:33;;;;;;;30.70;20.87;;;;;;;8.46;59.85;96449.59;5031526;28;20423;-73
2021/04/21 04:23:59;;;;;;;32.70;19.80;;;;;;;8.52;60.23;96448.19;5032139;28;20430;-72
2021/04/21 04:26:26;;;;;;;25.30;18.13;;;;;;;8.49;59.80;96451.13;5031300;28;20482;-72
2021/04/21 04:28:54;;;;;;;29.30;20.17;;;;;;;8.51;59.87;96458.81;5033016;28;20506;-71
2021/04/21 04:31:21;;;;;;;26.30;17.20;;;;;;;8.46;59.30;96454.81;5032914;28;20430;-71
2021/04/21 04:33:49;;;;;;;28.00;18.57;;;;;;;8.41;58.88;96459.72;5033719;28;20454;-72
2021/04/21 04:36:15;;;;;;;40.43;21.00;;;;;;;8.36;59.01;96461.16;5031868;28;20442;-72
2021/04/21 04:38:41;;;;;;;47.50;21.07;;;;;;;8.32;59.29;96460.63;5032930;28;20951;-72
2021/04/21 04:41:07;;;;;;;40.77;20.17;;;;;;;8.31;59.56;96464.25;5031971;28;20423;-72
2021/04/21 04:43:34;;;;;;;35.40;20.80;;;;;;;8.29;59.45;96455.75;5031794;28;20178;-72
2021/04/21 04:46:00;;;;;;;34.23;21.33;;;;;;;8.28;60.08;96456.72;5021801;28;20504;-71
2021/04/21 04:48:36;;;;;;;33.83;20.17;;;;;;;8.32;59.89;96462.44;5031453;28;20427;-71
2021/04/21 04:51:05;;;;;;;34.50;21.30;;;;;;;8.36;60.29;96467.19;5024858;28;20934;-72
2021/04/21 04:53:34;;;;;;;36.53;21.23;;;;;;;8.41;59.76;96470.16;5032096;28;20889;-72
2021/04/21 04:56:00;;;;;;;36.57;21.50;;;;;;;8.40;60.17;96476.38;5030860;28;20871;-72
2021/04/21 04:58:27;;;;;;;35.10;20.63;;;;;;;8.36;60.34;96477.63;5031873;28;20449;-74
2021/04/21 05:00:56;;;;;;;37.43;21.93;;;;;;;8.27;60.61;96478.56;5032345;28;20719;-72
2021/04/21 05:03:25;;;;;;;30.57;20.40;;;;;;;8.38;60.30;96477.50;5036908;28;20828;-72
2021/04/21 05:05:55;;;;;;;34.43;22.23;;;;;;;8.46;60.34;96483.56;5030122;28;20469;-71
2021/04/21 05:08:23;;;;;;;32.07;20.73;;;;;;;8.54;59.82;96485.41;5033192;28;20458;-71
2021/04/21 05:10:55;;;;;;;32.77;20.80;;;;;;;8.58;59.75;96486.75;5031356;28;20462;-71
2021/04/21 05:13:22;;;;;;;33.40;21.43;;;;;;;8.61;59.71;96480.38;5031545;28;20496;-72
2021/04/21 05:15:51;;;;;;;31.07;19.63;;;;;;;8.68;59.23;96491.84;5031726;28;20438;-72
2021/04/21 05:18:22;;;;;;;31.77;21.73;;;;;;;8.83;59.86;96491.22;5032902;28;20841;-73
2021/04/21 05:21:14;;;;;;;32.13;21.20;;;;;;;8.96;59.15;96488.97;5032249;28;20418;-73
2021/04/21 05:24:14;;;;;;;34.27;20.40;;;;;;;9.11;59.05;96498.81;5030488;28;20442;-71
2021/04/21 05:26:55;;;;;;;32.47;20.57;;;;;;;9.21;58.04;96497.72;5030092;28;20454;-71
2021/04/21 05:29:30;;;;;;;35.43;22.20;;;;;;;9.28;58.20;96497.88;5032855;28;20415;-72
2021/04/21 05:32:32;;;;;;;45.43;20.90;;;;;;;9.27;58.37;96500.63;5030400;28;20426;-73
2021/04/21 05:35:23;;;;;;;34.63;21.57;;;;;;;9.47;58.05;96503.78;5032188;28;20896;-72
2021/04/21 05:38:07;;;;;;;37.73;20.93;;;;;;;9.50;57.99;96501.66;5032205;28;20457;-72
2021/04/21 05:40:39;;;;;;;33.87;21.87;;;;;;;9.64;57.89;96500.19;5030732;28;20442;-71
2021/04/21 05:43:38;;;;;;;35.30;22.30;;;;;;;9.87;57.66;96506.56;5027305;28;20782;-72
2021/04/21 05:46:51;;;;;;;31.53;21.43;;;;;;;10.18;56.87;96501.44;5024463;28;21059;-72
2021/04/21 05:49:19;;;;;;;34.00;22.37;;;;;;;10.39;56.45;96505.34;4932264;29;20438;-72
2021/04/21 05:51:51;;;;;;;31.77;21.40;;;;;;;10.57;56.10;96513.00;4932850;29;20435;-72
2021/04/21 05:55:08;;;;;;;38.27;21.90;;;;;;;10.74;55.74;96504.09;4917418;29;20776;-71
2021/04/21 05:58:03;;;;;;;31.77;20.40;;;;;;;11.02;55.15;96514.13;4899728;29;20432;-72
2021/04/21 06:01:02;;;;;;;38.70;21.80;;;;;;;11.26;54.56;96501.84;4928578;29;20454;-71
2021/04/21 06:03:29;;;;;;;35.90;21.67;;;;;;;11.53;54.06;96508.38;4933845;29;20423;-71
2021/04/21 06:06:04;;;;;;;36.07;22.80;;;;;;;11.94;53.10;96507.22;4940722;29;20605;-73
2021/04/21 06:08:30;;;;;;;36.53;21.97;;;;;;;12.44;51.77;96504.97;4935139;29;20419;-72
2021/04/21 06:10:56;;;;;;;32.57;21.27;;;;;;;12.75;50.50;96503.94;4915878;29;20907;-73
2021/04/21 06:13:35;;;;;;;33.47;22.73;;;;;;;13.00;50.24;96506.25;4928320;29;20439;-71
2021/04/21 06:16:00;;;;;;;31.57;22.10;;;;;;;13.11;49.53;96515.50;4917371;29;20439;-72
2021/04/21 06:18:26;;;;;;;26.47;20.10;;;;;;;13.21;49.46;96505.50;4930962;29;20419;-71
2021/04/21 06:20:53;;;;;;;33.30;20.50;;;;;;;13.37;48.97;96514.16;5010689;28;20196;-72
2021/04/21 06:23:19;;;;;;;29.93;20.97;;;;;;;13.58;48.52;96515.19;5031752;28;20433;-72
2021/04/21 06:25:49;;;;;;;37.70;19.60;;;;;;;13.80;48.13;96514.19;5030860;28;20462;-71
2021/04/21 06:28:20;;;;;;;36.40;22.50;;;;;;;13.74;47.74;96519.38;5031942;28;20773;-71
2021/04/21 06:30:50;;;;;;;30.73;21.37;;;;;;;14.09;47.05;96519.50;5033325;28;20454;-71
2021/04/21 06:33:17;;;;;;;30.97;21.07;;;;;;;14.01;46.95;96519.59;5037704;28;20453;-71
2021/04/21 06:35:44;;;;;;;31.97;20.77;;;;;;;14.27;46.62;96527.72;5030959;28;20537;-73
2021/04/21 06:38:11;;;;;;;35.33;20.50;;;;;;;14.38;46.26;96523.75;5031953;28;20410;-72
2021/04/21 06:40:39;;;;;;;26.83;20.67;;;;;;;14.26;46.25;96523.44;5031136;28;20423;-72
2021/04/21 06:43:05;;;;;;;29.30;21.40;;;;;;;14.26;46.16;96528.72;5031234;28;20693;-71
2021/04/21 06:45:33;;;;;;;28.43;18.80;;;;;;;14.49;45.96;96538.19;5031775;28;20450;-71
2021/04/21 06:48:00;;;;;;;33.23;21.33;;;;;;;14.67;45.64;96539.50;5030291;28;20427;-73
2021/04/21 06:50:32;;;;;;;35.10;21.93;;;;;;;14.72;45.45;96534.53;5031807;28;20458;-70
2021/04/21 06:53:00;;;;;;;25.83;19.47;;;;;;;14.95;45.09;96538.69;5031609;28;20431;-74
2021/04/21 06:55:25;;;;;;;28.87;19.97;;;;;;;15.07;45.09;96539.75;5029532;28;20442;-72
2021/04/21 06:57:51;;;;;;;33.70;20.97;;;;;;;15.03;45.11;96530.59;5030214;28;20517;-71
2021/04/21 07:00:19;;;;;;;32.60;21.03;;;;;;;15.14;44.55;96534.50;5030013;28;20187;-71
2021/04/21 07:02:50;;;;;;;28.40;19.17;;;;;;;15.30;44.00;96528.88;5031644;28;20757;-72
2021/04/21 07:05:36;;;;;;;32.37;20.97;;;;;;;15.46;44.09;96524.22;5030005;28;20462;-72
2021/04/21 07:08:07;;;;;;;31.50;19.83;;;;;;;15.71;43.54;96529.75;5023700;28;20944;-72
2021/04/21 07:10:35;;;;;;;26.00;18.43;;;;;;;15.66;44.09;96518.97;5034071;28;20946;-72
2021/04/21 07:13:02;;;;;;;28.90;21.80;;;;;;;15.88;43.36;96527.56;5032588;28;20448;-72
2021/04/21 07:15:28;;;;;;;30.10;20.97;;;;;;;15.65;43.51;96531.38;5034315;28;20442;-71
2021/04/21 07:17:54;;;;;;;26.30;19.97;;;;;;;15.55;44.14;96528.31;5017210;28;20459;-73
2021/04/21 07:20:21;;;;;;;27.47;19.20;;;;;;;15.95;43.38;96531.00;5033702;28;20889;-73
2021/04/21 07:22:47;;;;;;;25.13;18.90;;;;;;;16.23;42.30;96529.19;5036636;28;20434;-71
2021/04/21 07:25:15;;;;;;;26.10;18.37;;;;;;;16.56;42.08;96530.97;5029790;28;20461;-73
2021/04/21 07:27:44;;;;;;;24.10;18.00;;;;;;;16.71;41.31;96530.72;5039291;28;20496;-74
2021/04/21 07:30:11;;;;;;;26.37;19.20;;;;;;;16.78;40.94;96533.34;5040268;28;20458;-73
2021/04/21 07:32:44;;;;;;;29.63;20.47;;;;;;;16.76;40.28;96536.22;5039601;28;20445;-73
2021/04/21 07:35:17;;;;;;;29.33;20.07;;;;;;;16.87;40.64;96529.47;5036351;28;20438;-72
2021/04/21 07:37:43;;;;;;;27.20;20.47;;;;;;;16.88;40.48;96529.25;5033580;28;20932;-71
2021/04/21 07:40:24;;;;;;;29.47;20.30;;;;;;;16.78;41.07;96536.00;5034141;28;20418;-71
2021/04/21 07:42:50;;;;;;;30.00;20.20;;;;;;;16.87;40.61;96540.06;5030659;28;20418;-71
2021/04/21 07:45:20;;;;;;;25.40;19.87;;;;;;;17.19;39.97;96540.16;5035746;28;20472;-72
2021/04/21 07:47:46;;;;;;;30.10;21.07;;;;;;;17.55;39.56;96530.78;5038627;28;20192;-72
2021/04/21 07:50:11;;;;;;;29.17;20.53;;;;;;;17.25;39.97;96534.03;5002326;28;20501;-72
2021/04/21 07:52:37;;;;;;;28.83;19.23;;;;;;;17.68;39.01;96543.16;5036105;28;20654;-72
2021/04/21 07:55:12;;;;;;;28.03;20.17;;;;;;;17.91;37.92;96537.28;5034166;28;20203;-71
2021/04/21 07:57:44;;;;;;;25.73;18.90;;;;;;;18.19;37.03;96527.31;5034895;28;20428;-72
2021/04/21 08:00:22;;;;;;;24.67;18.67;;;;;;;18.06;36.94;96534.34;5035673;28;20429;-73
2021/04/21 08:02:48;;;;;;;24.43;17.50;;;;;;;18.21;36.84;96543.81;5035910;28;20422;-73
2021/04/21 08:05:15;;;;;;;24.20;18.23;;;;;;;18.54;35.91;96545.34;5035323;28;20528;-73
2021/04/21 08:07:42;;;;;;;26.10;17.97;;;;;;;18.66;35.36;96540.13;5034962;28;20202;-73
2021/04/21 08:10:20;;;;;;;21.80;17.17;;;;;;;18.57;34.87;96537.75;5034595;28;20793;-72
2021/04/21 08:12:45;;;;;;;24.67;16.97;;;;;;;18.77;34.49;96544.72;5035455;28;20458;-74
2021/04/21 08:15:11;;;;;;;24.43;16.70;;;;;;;18.68;35.12;96552.16;5036313;28;20588;-73
2021/04/21 08:18:04;;;;;;;25.90;14.20;;;;;;;19.01;33.58;96548.34;5033285;28;20192;-72
2021/04/21 08:20:32;;;;;;;23.43;17.43;;;;;;;18.48;34.36;96538.25;5033667;28;20443;-72
2021/04/21 08:23:00;;;;;;;26.53;17.10;;;;;;;18.49;34.87;96538.06;5034564;28;20472;-74
2021/04/21 08:25:26;;;;;;;24.17;16.97;;;;;;;18.75;33.82;96544.13;5041874;28;20466;-73
2021/04/21 08:27:52;;;;;;;22.00;15.07;;;;;;;18.94;34.26;96544.97;5034512;28;20502;-74
2021/04/21 08:30:18;;;;;;;20.77;17.07;;;;;;;19.08;34.05;96545.63;5034553;28;20414;-73
2021/04/21 08:32:44;;;;;;;21.87;16.60;;;;;;;19.21;34.23;96549.97;5034517;28;20886;-73
2021/04/21 08:35:13;;;;;;;20.40;14.23;;;;;;;19.18;32.51;96550.41;5035428;28;20576;-72
2021/04/21 08:37:41;;;;;;;18.80;14.23;;;;;;;19.29;32.33;96544.34;5035279;28;20262;-73
2021/04/21 08:40:09;;;;;;;21.27;15.90;;;;;;;19.17;32.63;96549.56;5032866;28;21069;-73
2021/04/21 08:42:37;;;;;;;24.20;16.83;;;;;;;19.31;32.77;96546.75;5034510;28;20585;-73
2021/04/21 08:45:03;;;;;;;20.23;14.80;;;;;;;19.26;33.05;96542.13;5033334;28;20462;-72
2021/04/21 08:47:31;;;;;;;19.53;15.63;;;;;;;19.37;32.90;96545.88;5034920;28;20563;-71
2021/04/21 08:49:56;;;;;;;27.03;15.53;;;;;;;19.45;32.32;96550.88;5033841;28;20502;-73
2021/04/21 08:52:24;;;;;;;21.30;13.93;;;;;;;19.55;30.85;96544.19;5033662;28;20884;-72
2021/04/21 08:54:53;;;;;;;18.43;13.43;;;;;;;19.98;30.10;96543.19;5033597;28;20715;-72
2021/04/21 08:57:19;;;;;;;17.93;12.93;;;;;;;19.60;30.85;96542.47;5033143;28;20469;-72
2021/04/21 08:59:45;;;;;;;21.53;15.20;;;;;;;19.83;31.49;96550.75;5032694;28;20426;-73
2021/04/21 09:02:12;;;;;;;31.80;16.80;;;;;;;19.72;32.60;96550.50;5015466;28;20187;-73
2021/04/21 09:04:37;;;;;;;21.87;17.40;;;;;;;19.66;32.43;96543.41;5032936;28;20455;-75
2021/04/21 09:07:04;;;;;;;20.73;14.63;;;;;;;20.06;31.49;96547.38;5032482;28;20419;-73
2021/04/21 09:09:32;;;;;;;19.37;15.30;;;;;;;19.62;32.46;96543.06;5033304;28;20183;-73
2021/04/21 09:12:00;;;;;;;23.27;15.10;;;;;;;20.17;31.81;96545.75;5031329;28;20454;-73
2021/04/21 09:14:26;;;;;;;18.93;13.53;;;;;;;20.09;31.18;96550.38;5033292;28;20433;-72
2021/04/21 09:16:52;;;;;;;25.23;15.10;;;;;;;19.80;31.19;96547.50;5031846;28;20522;-72
2021/04/21 09:19:18;;;;;;;18.93;12.80;;;;;;;20.02;30.83;96543.53;5034224;28;20443;-72
2021/04/21 09:21:44;;;;;;;18.97;14.07;;;;;;;18.90;32.03;96557.03;5032249;28;20460;-73
2021/04/21 09:24:29;;;;;;;20.00;14.80;;;;;;;19.89;31.29;96549.88;5030617;28;20521;-72
2021/04/21 09:26:55;;;;;;;17.60;14.47;;;;;;;20.18;30.27;96548.19;5047835;28;20192;-72
2021/04/21 09:29:27;;;;;;;18.57;13.97;;;;;;;20.75;29.32;96536.16;5033995;28;20494;-73
2021/04/21 09:32:09;;;;;;;19.10;14.33;;;;;;;21.05;28.85;96540.53;5034040;28;20179;-74
2021/04/21 09:34:35;;;;;;;20.37;14.90;;;;;;;20.69;29.49;96537.09;5036730;28;20457;-73
2021/04/21 09:37:01;;;;;;;15.80;14.00;;;;;;;20.47;29.91;96536.88;5033411;28;20953;-73
2021/04/21 09:39:28;;;;;;;21.67;14.10;;;;;;;20.79;28.79;96531.22;5034723;28;20906;-72
2021/04/21 09:42:01;;;;;;;16.67;13.47;;;;;;;20.82;28.97;96531.53;5036215;28;20433;-73
2021/04/21 09:44:31;;;;;;;17.70;12.80;;;;;;;20.85;29.59;96533.75;5037370;28;20238;-72
2021/04/21 09:46:58;;;;;;;18.00;13.77;;;;;;;21.32;28.58;96529.31;5033733;28;20441;-71
2021/04/21 09:49:30;;;;;;;19.17;14.33;;;;;;;21.24;28.64;96535.00;5032816;28;20427;-71
2021/04/21 09:51:57;;;;;;;16.27;13.47;;;;;;;21.35;28.76;96530.69;5032106;28;20557;-73
2021/04/21 09:54:35;;;;;;;17.03;13.10;;;;;;;21.36;29.32;96527.78;5031325;28;20434;-72
2021/04/21 09:57:14;;;;;;;18.90;14.70;;;;;;;21.81;28.68;96534.19;5024291;28;20418;-72
2021/04/21 09:59:41;;;;;;;17.70;14.43;;;;;;;21.99;27.90;96521.69;5032035;28;20428;-72
2021/04/21 10:02:34;;;;;;;17.60;14.67;;;;;;;21.52;28.86;96533.41;5031971;28;20426;-72
2021/04/21 10:05:22;;;;;;;18.87;13.23;;;;;;;21.09;28.63;96532.88;5022345;28;20508;-72
2021/04/21 10:07:47;;;;;;;16.50;13.60;;;;;;;21.68;27.85;96515.84;5032320;28;20932;-72
2021/04/21 10:10:26;;;;;;;21.10;14.60;;;;;;;22.19;27.42;96514.00;5030910;28;20431;-72
2021/04/21 10:12:54;;;;;;;23.00;13.23;;;;;;;21.67;28.66;96519.59;5032064;28;20183;-74
2021/04/21 10:15:29;;;;;;;18.30;13.43;;;;;;;21.90;28.18;96507.94;5032209;28;20444;-73
2021/04/21 10:17:56;;;;;;;15.40;13.60;;;;;;;22.23;27.90;96519.69;5032977;28;20449;-74
2021/04/21 10:20:22;;;;;;;20.03;15.50;;;;;;;21.00;28.47;96525.25;5030606;28;21065;-72
2021/04/21 10:22:48;;;;;;;15.87;12.67;;;;;;;21.51;28.12;96529.94;5030758;28;20461;-73
2021/04/21 10:25:15;;;;;;;17.60;14.50;;;;;;;21.68;28.28;96521.19;5032227;28;20219;-73
2021/04/21 10:27:41;;;;;;;16.50;13.00;;;;;;;22.11;27.42;96514.44;5042325;28;20242;-71
2021/04/21 10:30:08;;;;;;;18.10;14.73;;;;;;;22.01;27.42;96514.28;5031585;28;20454;-74
2021/04/21 10:32:34;;;;;;;14.87;13.00;;;;;;;21.78;27.37;96518.72;5031967;28;20238;-72
2021/04/21 10:35:00;;;;;;;15.37;12.30;;;;;;;21.02;28.21;96514.34;5031942;28;20448;-71
2021/04/21 10:37:26;;;;;;;16.80;14.30;;;;;;;19.45;30.41;96521.63;5032307;28;20426;-73
2021/04/21 10:39:54;;;;;;;15.10;12.60;;;;;;;20.34;29.18;96517.44;5033422;28;20230;-72
2021/04/21 10:42:20;;;;;;;13.60;11.93;;;;;;;21.22;27.57;96515.81;5039672;28;20534;-74
2021/04/21 10:44:48;;;;;;;15.00;12.53;;;;;;;20.33;28.86;96510.50;5018338;28;20462;-73
2021/04/21 10:47:15;;;;;;;17.60;13.70;;;;;;;20.09;29.22;96512.34;5032016;28;20426;-72
2021/04/21 10:49:55;;;;;;;19.17;13.57;;;;;;;20.23;28.89;96512.94;5030986;28;20509;-73
2021/04/21 10:52:34;;;;;;;19.10;13.70;;;;;;;19.98;28.82;96511.28;5032022;28;20430;-73
2021/04/21 10:55:02;;;;;;;18.10;12.87;;;;;;;20.38;28.29;96510.63;5032089;28;20434;-72
2021/04/21 10:57:37;;;;;;;21.97;14.10;;;;;;;19.79;28.57;96498.03;5032051;28;20985;-72
2021/04/21 11:00:25;;;;;;;15.73;13.57;;;;;;;19.94;28.47;96497.66;5023958;28;20430;-72
2021/04/21 11:03:05;;;;;;;16.60;13.83;;;;;;;20.20;27.85;96500.91;5030988;28;20423;-72
2021/04/21 11:05:41;;;;;;;15.00;11.87;;;;;;;19.49;28.79;96498.09;5031944;28;20454;-74
2021/04/21 11:08:09;;;;;;;17.30;12.03;;;;;;;19.79;28.32;96495.38;5025394;28;20529;-73
2021/04/21 11:10:49;;;;;;;15.97;12.53;;;;;;;19.39;29.24;96497.81;5032030;28;20430;-72
2021/04/21 11:13:37;;;;;;;16.00;13.07;;;;;;;19.42;29.15;96500.03;5026705;28;20418;-73
2021/04/21 11:16:05;;;;;;;15.20;12.60;;;;;;;19.48;29.09;96502.59;5026519;28;20442;-73
2021/04/21 11:18:39;;;;;;;15.03;12.10;;;;;;;20.26;27.95;96496.50;5031973;28;20515;-72
2021/04/21 11:21:09;;;;;;;15.77;11.80;;;;;;;19.80;28.97;96496.19;5030530;28;20430;-73
2021/04/21 11:26:23;;;;;;;16.00;11.87;;;;;;;19.86;28.36;96487.31;5033295;28;20522;-72
2021/04/21 11:29:14;;;;;;;14.53;12.00;;;;;;;20.78;27.59;96479.81;5032155;28;20452;-72
2021/04/21 11:31:43;;;;;;;17.00;12.47;;;;;;;21.28;26.54;96483.69;5030935;28;20817;-73
2021/04/21 11:34:24;;;;;;;14.37;11.80;;;;;;;22.18;24.99;96476.91;5037823;28;20434;-72
2021/04/21 11:36:58;;;;;;;14.80;11.13;;;;;;;22.01;25.15;96476.94;5030284;28;20829;-71
2021/04/21 11:39:42;;;;;;;13.10;11.40;;;;;;;22.11;24.32;96476.28;5031609;28;20430;-73
2021/04/21 11:42:20;;;;;;;12.37;10.63;;;;;;;20.55;25.17;96478.78;5032127;28;20460;-72
2021/04/21 11:44:55;;;;;;;13.07;10.63;;;;;;;21.78;24.11;96465.38;5029804;28;20511;-71
2021/04/21 11:47:44;;;;;;;12.40;10.00;;;;;;;22.55;23.45;96469.19;5032595;28;20429;-72